createdAt,value
2018-12-22T00:01:46.448Z,93.50
2018-12-22T00:07:08.078Z,93.30
2018-12-22T00:09:38.523Z,93.20
2018-12-22T00:12:13.801Z,93.10
2018-12-22T00:14:44.424Z,92.90
2018-12-22T00:17:15.245Z,92.90
2018-12-22T00:19:46.620Z,92.80
2018-12-22T00:22:17.541Z,92.80
2018-12-22T00:24:48.081Z,92.90
2018-12-22T00:27:18.515Z,93.20
2018-12-22T00:29:48.916Z,93.50
2018-12-22T00:32:19.454Z,94.00
2018-12-22T00:34:51.801Z,94.40
2018-12-22T00:37:28.811Z,94.80
2018-12-22T00:39:59.333Z,95.20
2018-12-22T00:42:29.669Z,95.50
2018-12-22T00:45:01.650Z,95.80
2018-12-22T00:47:32.643Z,95.90
2018-12-22T00:50:05.822Z,96.00
2018-12-22T00:52:39.692Z,96.10
2018-12-22T00:55:12.460Z,96.10
2018-12-22T00:57:43.271Z,96.10
2018-12-22T01:00:15.067Z,96.20
2018-12-22T01:02:45.753Z,96.40
2018-12-22T01:05:16.462Z,96.70
2018-12-22T01:07:49.350Z,96.80
2018-12-22T01:10:20.543Z,97.00
2018-12-22T01:12:51.108Z,97.20
2018-12-22T01:15:21.492Z,97.40
2018-12-22T01:17:52.746Z,97.60
2018-12-22T01:20:31.886Z,97.80
2018-12-22T01:23:02.302Z,97.90
2018-12-22T01:25:32.637Z,98.50
2018-12-22T01:28:03.035Z,98.30
2018-12-22T01:30:33.380Z,98.60
2018-12-22T01:33:03.725Z,98.50
2018-12-22T01:35:34.589Z,98.70
2018-12-22T01:38:05.439Z,98.90
2018-12-22T01:40:36.013Z,99.00
2018-12-22T01:43:06.302Z,99.10
2018-12-22T01:45:41.475Z,99.10
2018-12-22T01:48:12.256Z,99.10
2018-12-22T01:50:43.030Z,99.00
2018-12-22T01:53:13.819Z,99.10
2018-12-22T01:55:44.443Z,99.10
2018-12-22T01:58:14.959Z,99.00
2018-12-22T02:00:48.062Z,98.90
2018-12-22T02:03:18.575Z,99.00
2018-12-22T02:05:48.948Z,99.00
2018-12-22T02:08:19.341Z,99.00
2018-12-22T02:10:49.764Z,99.00
2018-12-22T02:13:20.000Z,99.00
2018-12-22T02:15:50.405Z,99.10
2018-12-22T02:18:20.578Z,99.00
2018-12-22T02:20:50.903Z,99.00
2018-12-22T02:23:21.415Z,98.90
2018-12-22T02:25:51.902Z,98.90
2018-12-22T02:28:22.191Z,98.90
2018-12-22T02:30:52.580Z,98.80
2018-12-22T02:33:23.147Z,98.80
2018-12-22T02:35:53.637Z,98.60
2018-12-22T02:38:24.323Z,98.80
2018-12-22T02:40:54.828Z,98.70
2018-12-22T02:43:25.117Z,98.80
2018-12-22T02:45:55.511Z,98.70
2018-12-22T02:48:25.956Z,99.10
2018-12-22T02:50:56.294Z,99.30
2018-12-22T02:53:26.707Z,99.40
2018-12-22T02:55:57.081Z,99.50
2018-12-22T02:58:27.394Z,99.60
2018-12-22T03:00:57.802Z,99.90
2018-12-22T03:03:28.128Z,99.80
2018-12-22T03:05:58.564Z,99.80
2018-12-22T03:08:28.890Z,99.90
2018-12-22T03:10:59.409Z,99.90
2018-12-22T03:13:29.606Z,99.90
2018-12-22T03:15:59.883Z,99.90
2018-12-22T03:18:30.215Z,99.90
2018-12-22T03:21:00.548Z,99.90
2018-12-22T03:23:30.802Z,99.90
2018-12-22T03:26:01.203Z,99.90
2018-12-22T03:28:31.550Z,99.90
2018-12-22T03:31:01.899Z,99.90
2018-12-22T03:33:32.446Z,99.90
2018-12-22T03:36:02.933Z,99.90
2018-12-22T03:38:33.278Z,99.90
2018-12-22T03:41:03.855Z,99.90
2018-12-22T03:43:34.152Z,99.90
2018-12-22T03:46:04.751Z,99.90
2018-12-22T03:48:35.698Z,99.90
2018-12-22T03:51:06.105Z,99.90
2018-12-22T03:53:36.535Z,99.90
2018-12-22T03:56:07.161Z,99.90
2018-12-22T03:58:37.461Z,99.90
2018-12-22T04:01:07.803Z,99.90
2018-12-22T04:03:38.566Z,99.90
2018-12-22T04:06:08.854Z,99.90
2018-12-22T04:08:39.177Z,99.90
2018-12-22T04:11:09.443Z,99.90
2018-12-22T04:13:39.940Z,99.90
2018-12-22T04:16:10.297Z,99.90
2018-12-22T04:18:41.243Z,99.90
2018-12-22T04:21:11.734Z,99.60
2018-12-22T04:23:43.238Z,97.60
2018-12-22T04:26:13.576Z,97.30
2018-12-22T04:28:44.863Z,97.00
2018-12-22T04:31:15.305Z,96.90
2018-12-22T04:33:45.507Z,96.90
2018-12-22T04:36:15.806Z,96.40
2018-12-22T04:38:46.106Z,95.30
2018-12-22T04:41:16.358Z,95.30
2018-12-22T04:43:46.667Z,95.30
2018-12-22T04:46:17.055Z,93.40
2018-12-22T04:48:47.665Z,93.40
2018-12-22T04:51:18.510Z,93.00
2018-12-22T04:53:48.923Z,92.30
2018-12-22T04:56:27.187Z,92.40
2018-12-22T04:58:57.427Z,92.60
2018-12-22T05:01:27.870Z,91.80
2018-12-22T05:03:58.200Z,91.80
2018-12-22T05:06:28.738Z,92.20
2018-12-22T05:08:59.270Z,91.90
2018-12-22T05:11:29.644Z,92.00
2018-12-22T05:14:00.001Z,90.90
2018-12-22T05:16:30.277Z,90.00
2018-12-22T05:19:00.654Z,87.30
2018-12-22T05:21:31.115Z,85.10
2018-12-22T05:24:01.307Z,83.60
2018-12-22T05:26:31.725Z,83.30
2018-12-22T05:29:02.026Z,83.20
2018-12-22T05:31:32.362Z,83.10
2018-12-22T05:34:02.614Z,83.20
2018-12-22T05:36:33.033Z,81.60
2018-12-22T05:39:06.008Z,80.30
2018-12-22T05:41:36.560Z,80.20
2018-12-22T05:44:06.906Z,78.40
2018-12-22T05:46:37.518Z,79.30
2018-12-22T05:49:07.925Z,79.90
2018-12-22T05:51:38.200Z,78.50
2018-12-22T05:54:08.452Z,78.10
2018-12-22T05:56:38.780Z,76.70
2018-12-22T05:59:09.048Z,74.40
2018-12-22T06:01:39.394Z,73.30
2018-12-22T06:04:09.739Z,71.80
2018-12-22T06:06:39.965Z,70.50
2018-12-22T06:09:10.266Z,70.60
2018-12-22T06:11:40.580Z,70.00
2018-12-22T06:14:10.779Z,70.50
2018-12-22T06:16:41.033Z,69.60
2018-12-22T06:19:11.395Z,68.10
2018-12-22T06:21:41.853Z,69.20
2018-12-22T06:24:12.270Z,70.40
2018-12-22T06:26:42.614Z,71.00
2018-12-22T06:29:12.889Z,70.90
2018-12-22T06:31:43.361Z,74.10
2018-12-22T06:34:13.656Z,73.50
2018-12-22T06:36:44.185Z,74.50
2018-12-22T06:39:14.515Z,74.20
2018-12-22T06:41:44.955Z,75.50
2018-12-22T06:44:15.228Z,75.30
2018-12-22T06:46:45.635Z,74.80
2018-12-22T06:49:15.951Z,74.70
2018-12-22T06:51:46.368Z,74.00
2018-12-22T06:54:16.619Z,72.50
2018-12-22T06:56:47.012Z,72.40
2018-12-22T06:59:17.828Z,72.20
2018-12-22T07:01:48.172Z,72.70
2018-12-22T07:04:18.359Z,72.20
2018-12-22T07:06:48.743Z,72.20
2018-12-22T07:09:19.094Z,72.10
2018-12-22T07:11:49.457Z,72.40
2018-12-22T07:14:19.795Z,72.70
2018-12-22T07:16:50.204Z,73.40
2018-12-22T07:19:20.507Z,73.90
2018-12-22T07:21:50.697Z,73.30
2018-12-22T07:24:21.189Z,73.50
2018-12-22T07:26:51.619Z,73.90
2018-12-22T07:29:21.985Z,75.40
2018-12-22T07:31:52.232Z,75.30
2018-12-22T07:34:22.511Z,76.40
2018-12-22T07:36:52.859Z,77.60
2018-12-22T07:39:23.551Z,78.60
2018-12-22T07:41:54.018Z,81.10
2018-12-22T07:44:24.462Z,82.80
2018-12-22T07:46:54.776Z,82.70
2018-12-22T07:49:25.065Z,83.20
2018-12-22T07:51:55.422Z,84.90
2018-12-22T07:54:25.755Z,86.60
2018-12-22T07:56:56.369Z,86.50
2018-12-22T07:59:26.610Z,85.90
2018-12-22T08:01:56.943Z,86.90
2018-12-22T08:04:27.268Z,85.10
2018-12-22T08:06:57.769Z,85.90
2018-12-22T08:09:28.228Z,87.00
2018-12-22T08:11:58.735Z,87.00
2018-12-22T08:14:29.392Z,87.20
2018-12-22T08:16:59.907Z,84.90
2018-12-22T08:19:30.338Z,82.50
2018-12-22T08:22:00.606Z,81.90
2018-12-22T08:24:31.098Z,81.70
2018-12-22T08:27:02.420Z,82.40
2018-12-22T08:29:32.870Z,82.20
2018-12-22T08:32:03.090Z,79.20
2018-12-22T08:34:33.423Z,77.10
2018-12-22T08:37:03.805Z,77.40
2018-12-22T08:39:34.417Z,78.10
2018-12-22T08:42:04.960Z,79.80
2018-12-22T08:44:35.290Z,77.60
2018-12-22T08:47:05.619Z,78.40
2018-12-22T08:49:38.584Z,79.50
2018-12-22T08:52:15.618Z,79.60
2018-12-22T08:54:46.856Z,81.00
2018-12-22T08:57:17.132Z,84.40
2018-12-22T08:59:50.605Z,85.50
2018-12-22T09:02:22.335Z,87.00
2018-12-22T09:04:52.661Z,89.30
2018-12-22T09:07:23.120Z,90.30
2018-12-22T09:09:53.298Z,90.60
2018-12-22T09:12:23.539Z,90.70
2018-12-22T09:14:53.967Z,91.30
2018-12-22T09:17:24.515Z,90.50
2018-12-22T09:19:54.942Z,91.30
2018-12-22T09:22:25.402Z,91.20
2018-12-22T09:24:55.692Z,90.90
2018-12-22T09:27:28.731Z,91.90
2018-12-22T09:29:59.282Z,92.80
2018-12-22T09:32:29.596Z,93.60
2018-12-22T09:35:00.743Z,93.30
2018-12-22T09:37:31.115Z,93.20
2018-12-22T09:40:01.646Z,92.80
2018-12-22T09:42:32.199Z,92.90
2018-12-22T09:45:02.890Z,92.50
2018-12-22T09:47:33.588Z,93.20
2018-12-22T09:50:07.636Z,92.40
2018-12-22T09:52:38.915Z,92.50
2018-12-22T09:55:10.467Z,93.00
2018-12-22T09:57:41.095Z,92.70
2018-12-22T10:00:13.042Z,91.00
2018-12-22T10:02:43.607Z,92.20
2018-12-22T10:05:13.998Z,90.90
2018-12-22T10:07:44.547Z,90.80
2018-12-22T10:10:18.568Z,90.90
2018-12-22T10:12:48.973Z,87.30
2018-12-22T10:15:19.480Z,90.30
2018-12-22T10:17:50.580Z,87.90
2018-12-22T10:23:14.710Z,84.40
2018-12-22T10:25:45.050Z,84.30
2018-12-22T10:28:15.533Z,86.70
2018-12-22T10:30:46.303Z,85.10
2018-12-22T10:33:16.910Z,85.50
2018-12-22T10:35:47.324Z,86.70
2018-12-22T10:38:17.757Z,86.40
2018-12-22T10:40:48.214Z,83.50
2018-12-22T10:43:18.553Z,82.40
2018-12-22T10:45:48.968Z,82.40
2018-12-22T10:48:19.360Z,82.50
2018-12-22T10:50:50.115Z,80.20
2018-12-22T10:53:20.909Z,80.70
2018-12-22T10:55:51.338Z,79.30
2018-12-22T10:58:30.320Z,80.10
2018-12-22T11:01:00.901Z,79.60
2018-12-22T11:03:32.113Z,79.20
2018-12-22T11:06:09.312Z,78.40
2018-12-22T11:08:39.818Z,79.50
2018-12-22T11:11:10.137Z,79.60
2018-12-22T11:13:40.352Z,78.00
2018-12-22T11:16:10.740Z,76.50
2018-12-22T11:18:41.082Z,76.20
2018-12-22T11:21:11.443Z,74.70
2018-12-22T11:23:41.997Z,73.90
2018-12-22T11:26:12.371Z,73.50
2018-12-22T11:28:42.735Z,71.30
2018-12-22T11:31:13.062Z,71.20
2018-12-22T11:33:43.372Z,70.50
2018-12-22T11:36:13.773Z,71.70
2018-12-22T11:38:44.204Z,71.20
2018-12-22T11:41:14.583Z,72.40
2018-12-22T11:43:44.975Z,73.80
2018-12-22T11:46:15.308Z,76.00
2018-12-22T11:49:40.940Z,77.20
2018-12-22T11:52:11.636Z,80.30
2018-12-22T11:54:42.100Z,85.80
2018-12-22T11:57:12.437Z,86.70
2018-12-22T11:59:42.779Z,90.50
2018-12-22T12:02:13.116Z,87.10
2018-12-22T12:04:43.267Z,88.40
2018-12-22T12:07:13.618Z,91.30
2018-12-22T12:09:44.105Z,89.70
2018-12-22T12:12:14.735Z,86.60
2018-12-22T12:14:45.496Z,89.70
2018-12-22T12:17:38.011Z,87.60
2018-12-22T12:20:08.367Z,89.60
2018-12-22T12:22:38.714Z,88.20
2018-12-22T12:25:09.197Z,84.10
2018-12-22T12:27:39.535Z,86.10
2018-12-22T12:30:10.884Z,86.50
2018-12-22T12:32:41.197Z,84.40
2018-12-22T12:35:11.819Z,85.00
2018-12-22T12:37:42.227Z,81.10
2018-12-22T12:40:13.661Z,82.80
2018-12-22T12:42:44.501Z,82.90
2018-12-22T12:45:15.050Z,84.30
2018-12-22T12:47:47.267Z,83.10
2018-12-22T12:50:20.847Z,84.20
2018-12-22T12:52:51.276Z,84.60
2018-12-22T12:55:21.851Z,82.00
2018-12-22T12:57:52.259Z,83.70
2018-12-22T13:00:24.598Z,82.60
2018-12-22T13:02:56.079Z,82.90
2018-12-22T13:05:26.931Z,83.20
2018-12-22T13:10:51.339Z,82.40
2018-12-22T13:14:02.666Z,80.40
2018-12-22T13:16:34.747Z,81.20
2018-12-22T13:19:05.146Z,80.20
2018-12-22T13:21:35.582Z,79.30
2018-12-22T13:24:08.736Z,79.80
2018-12-22T13:26:39.604Z,78.40
2018-12-22T13:29:10.100Z,78.00
2018-12-22T13:31:42.321Z,76.30
2018-12-22T13:34:12.648Z,77.40
2018-12-22T13:36:43.055Z,77.60
2018-12-22T13:39:18.167Z,77.20
2018-12-22T13:41:48.509Z,77.30
2018-12-22T13:44:18.731Z,76.30
2018-12-22T13:46:49.178Z,77.10
2018-12-22T13:49:21.053Z,74.90
2018-12-22T13:51:51.761Z,74.30
2018-12-22T13:54:25.541Z,74.40
2018-12-22T13:56:56.920Z,73.80
2018-12-22T13:59:27.431Z,73.00
2018-12-22T14:02:03.647Z,72.90
2018-12-22T14:04:36.411Z,72.70
2018-12-22T14:07:11.760Z,72.70
2018-12-22T14:09:42.858Z,72.90
2018-12-22T14:12:13.278Z,71.30
2018-12-22T14:14:43.696Z,70.80
2018-12-22T14:17:37.293Z,71.50
2018-12-22T14:20:14.058Z,73.10
2018-12-22T14:22:46.185Z,73.40
2018-12-22T14:25:27.197Z,74.10
2018-12-22T14:27:57.520Z,73.50
2018-12-22T14:30:27.955Z,73.10
2018-12-22T14:32:58.287Z,73.00
2018-12-22T14:35:40.921Z,71.00
2018-12-22T14:38:11.453Z,70.30
2018-12-22T14:40:41.814Z,70.60
2018-12-22T14:43:12.138Z,72.50
2018-12-22T14:45:42.442Z,72.00
2018-12-22T14:48:12.759Z,73.30
2018-12-22T14:50:43.355Z,75.30
2018-12-22T14:53:13.876Z,77.60
2018-12-22T14:55:44.220Z,80.70
2018-12-22T14:58:23.245Z,82.00
2018-12-22T15:00:53.791Z,83.30
2018-12-22T15:03:24.347Z,83.30
2018-12-22T15:05:54.682Z,85.20
2018-12-22T15:08:25.033Z,83.90
2018-12-22T15:10:55.582Z,85.40
2018-12-22T15:13:25.911Z,84.30
2018-12-22T15:15:56.206Z,85.10
2018-12-22T15:18:26.614Z,82.70
2018-12-22T15:20:59.611Z,82.70
2018-12-22T15:23:29.890Z,82.80
2018-12-22T15:26:00.235Z,84.10
2018-12-22T15:28:30.551Z,82.80
2018-12-22T15:31:00.917Z,82.90
2018-12-22T15:33:31.255Z,84.40
2018-12-22T15:36:01.766Z,84.00
2018-12-22T15:38:32.080Z,83.70
2018-12-22T15:41:02.671Z,84.80
2018-12-22T15:43:33.595Z,85.70
2018-12-22T15:46:03.905Z,83.80
2018-12-22T15:48:34.547Z,85.30
2018-12-22T15:51:05.172Z,87.90
2018-12-22T15:53:35.552Z,89.20
2018-12-22T15:56:06.035Z,90.20
2018-12-22T15:58:36.537Z,90.30
2018-12-22T16:01:06.915Z,90.20
2018-12-22T16:03:37.610Z,90.40
2018-12-22T16:06:08.073Z,91.20
2018-12-22T16:08:38.666Z,91.80
2018-12-22T16:11:09.164Z,91.10
2018-12-22T16:13:39.554Z,91.50
2018-12-22T16:16:10.061Z,91.80
2018-12-22T16:18:40.553Z,91.80
2018-12-22T16:21:10.979Z,92.00
2018-12-22T16:23:41.455Z,92.20
2018-12-22T16:26:12.247Z,94.00
2018-12-22T16:44:46.430Z,97.80
2018-12-22T16:47:17.294Z,97.60
2018-12-22T16:49:47.754Z,97.60
2018-12-22T16:52:18.266Z,98.20
2018-12-22T16:54:48.830Z,98.30
2018-12-22T16:57:19.361Z,98.80
2018-12-22T16:59:52.547Z,98.80
2018-12-22T17:03:16.120Z,98.80
2018-12-22T17:05:47.106Z,99.00
2018-12-22T17:08:22.462Z,99.10
2018-12-22T17:11:00.069Z,98.80
2018-12-22T17:13:30.862Z,98.90
2018-12-22T17:16:02.590Z,99.00
2018-12-22T17:18:33.378Z,99.10
2018-12-22T17:21:26.762Z,99.10
2018-12-22T17:24:09.734Z,99.00
2018-12-22T17:26:44.112Z,98.90
2018-12-22T17:29:14.361Z,98.90
2018-12-22T17:31:45.681Z,99.10
2018-12-22T17:34:16.525Z,99.10
2018-12-22T17:36:46.967Z,99.20
2018-12-22T17:39:17.910Z,99.30
2018-12-22T17:41:48.715Z,99.30
2018-12-22T17:44:19.228Z,99.30
2018-12-22T17:47:45.814Z,99.10
2018-12-22T17:50:18.927Z,99.00
2018-12-22T17:52:50.261Z,98.60
2018-12-22T17:55:22.491Z,98.30
2018-12-22T17:57:53.432Z,98.70
2018-12-22T18:00:24.019Z,96.30
2018-12-22T18:02:55.284Z,96.50
2018-12-22T18:05:25.634Z,97.00
2018-12-22T18:07:56.140Z,96.90
2018-12-22T18:10:28.796Z,97.10
2018-12-22T18:13:04.386Z,97.30
2018-12-22T18:15:35.120Z,97.40
2018-12-22T18:18:05.923Z,97.90
2018-12-22T18:20:36.230Z,98.10
2018-12-22T18:23:06.935Z,97.90
2018-12-22T18:25:38.441Z,97.70
2018-12-22T18:28:08.803Z,97.10
2018-12-22T18:30:39.294Z,96.80
2018-12-22T18:33:09.717Z,96.10
2018-12-22T18:35:40.406Z,94.90
2018-12-22T18:38:16.423Z,94.50
2018-12-22T18:40:47.064Z,94.80
2018-12-22T18:43:17.649Z,94.50
2018-12-22T18:45:48.539Z,94.50
2018-12-22T18:48:19.033Z,94.50
2018-12-22T18:50:49.531Z,94.70
2018-12-22T18:53:20.294Z,95.00
2018-12-22T18:55:51.108Z,94.90
2018-12-22T18:58:21.854Z,95.00
2018-12-22T19:00:53.334Z,94.80
2018-12-22T19:03:23.829Z,95.10
2018-12-22T19:05:54.263Z,94.60
2018-12-22T19:08:25.946Z,94.70
2018-12-22T19:11:02.805Z,94.50
2018-12-22T19:13:33.311Z,93.50
2018-12-22T19:16:04.007Z,93.20
2018-12-22T19:18:34.384Z,93.40
2018-12-22T19:21:04.897Z,93.60
2018-12-22T19:23:35.264Z,93.00
2018-12-22T19:26:05.843Z,93.10
2018-12-22T19:28:38.165Z,93.60
2018-12-22T19:31:08.611Z,93.50
2018-12-22T19:33:40.141Z,93.50
2018-12-22T19:36:10.490Z,93.90
2018-12-22T19:38:41.501Z,93.30
2018-12-22T19:41:12.186Z,92.90
2018-12-22T19:43:42.716Z,92.60
2018-12-22T19:46:14.454Z,92.30
2018-12-22T19:48:45.498Z,92.00
2018-12-22T19:51:15.926Z,92.10
2018-12-22T19:53:47.641Z,91.90
2018-12-22T19:56:19.550Z,92.50
2018-12-22T19:58:50.645Z,92.60
2018-12-22T20:01:21.248Z,92.80
2018-12-22T20:03:51.649Z,92.20
2018-12-22T20:06:22.195Z,92.00
2018-12-22T20:08:52.492Z,91.40
2018-12-22T20:11:23.012Z,90.10
2018-12-22T20:13:53.333Z,89.50
2018-12-22T20:16:24.173Z,89.00
2018-12-22T20:18:55.228Z,86.90
2018-12-22T20:21:25.664Z,85.90
2018-12-22T20:23:56.055Z,86.40
2018-12-22T20:26:26.789Z,82.80
2018-12-22T20:28:57.127Z,83.90
2018-12-22T20:31:27.646Z,84.30
2018-12-22T20:33:57.915Z,82.40
2018-12-22T20:36:29.506Z,82.50
2018-12-22T20:38:59.857Z,82.50
2018-12-22T20:41:30.521Z,84.00
2018-12-22T20:44:01.123Z,85.40
2018-12-22T20:46:31.541Z,85.70
2018-12-22T20:49:03.075Z,86.30
2018-12-22T20:51:33.784Z,87.60
2018-12-22T20:54:06.384Z,89.20
2018-12-22T20:56:36.864Z,89.90
2018-12-22T20:59:12.661Z,90.10
2018-12-22T21:01:43.207Z,90.50
2018-12-22T21:04:20.973Z,90.40
2018-12-22T21:06:52.930Z,90.50
2018-12-22T21:09:24.065Z,90.50
2018-12-22T21:11:54.665Z,90.50
2018-12-22T21:14:25.079Z,90.70
2018-12-22T21:16:55.737Z,90.50
2018-12-22T21:19:26.299Z,90.80
2018-12-22T21:38:01.646Z,92.10
2018-12-22T21:40:32.175Z,92.10
2018-12-22T21:43:02.553Z,92.20
2018-12-22T21:45:32.993Z,92.00
2018-12-22T21:48:03.763Z,92.20
2018-12-22T21:50:34.099Z,91.90
2018-12-22T21:53:05.256Z,91.90
2018-12-22T21:55:36.381Z,92.00
2018-12-22T21:58:08.032Z,92.00
2018-12-22T22:00:38.459Z,91.90
2018-12-22T22:19:13.113Z,91.60
2018-12-22T22:21:45.818Z,91.80
2018-12-22T22:24:15.999Z,91.70
2018-12-22T22:26:46.350Z,91.30
2018-12-22T22:29:17.154Z,91.10
2018-12-22T22:31:47.601Z,90.90
2018-12-22T22:34:18.152Z,90.80
2018-12-22T22:36:51.650Z,91.20
2018-12-22T22:39:21.991Z,91.20
2018-12-22T22:41:52.727Z,91.30
2018-12-22T22:44:24.131Z,90.40
2018-12-22T22:46:54.822Z,90.40
2018-12-22T22:49:25.464Z,90.80
2018-12-22T22:51:55.859Z,91.00
2018-12-22T22:54:26.908Z,90.80
2018-12-22T22:56:59.402Z,90.80
2018-12-22T22:59:30.519Z,90.90
2018-12-22T23:02:01.208Z,91.20
2018-12-22T23:04:31.477Z,91.40
2018-12-22T23:07:01.845Z,91.40
2018-12-22T23:09:32.215Z,91.40
2018-12-22T23:12:02.622Z,91.50
2018-12-22T23:14:33.058Z,91.60
2018-12-22T23:17:03.435Z,91.60
2018-12-22T23:19:35.046Z,91.60
2018-12-22T23:22:05.762Z,91.50
2018-12-22T23:24:36.337Z,91.70
2018-12-22T23:27:06.649Z,91.70
2018-12-22T23:29:37.289Z,91.80
2018-12-22T23:32:07.701Z,91.30
2018-12-22T23:34:38.262Z,90.80
2018-12-22T23:37:08.661Z,90.60
2018-12-22T23:39:39.407Z,90.30
2018-12-22T23:42:09.818Z,90.30
2018-12-22T23:44:40.607Z,90.30
2018-12-22T23:47:11.098Z,90.60
2018-12-22T23:49:41.509Z,91.30
2018-12-22T23:52:13.066Z,91.20
2018-12-22T23:54:43.603Z,91.70
2018-12-22T23:57:14.104Z,91.40
2018-12-22T23:59:44.859Z,91.30
